createdAt,value
2018-07-05T00:00:35.650Z,68.30
2018-07-05T00:03:15.290Z,68.08
2018-07-05T00:05:54.830Z,68.40
2018-07-05T00:08:34.460Z,67.95
2018-07-05T00:11:13.957Z,68.00
2018-07-05T00:13:53.638Z,68.95
2018-07-05T00:16:33.218Z,67.78
2018-07-05T00:19:12.834Z,68.56
2018-07-05T00:21:52.513Z,68.34
2018-07-05T00:24:31.998Z,68.51
2018-07-05T00:27:11.561Z,67.97
2018-07-05T00:29:51.182Z,67.91
2018-07-05T00:32:30.874Z,68.40
2018-07-05T00:35:10.525Z,67.81
2018-07-05T00:37:50.078Z,67.89
2018-07-05T00:40:29.702Z,68.61
2018-07-05T00:43:09.425Z,68.71
2018-07-05T00:45:49.186Z,68.08
2018-07-05T00:48:28.922Z,68.20
2018-07-05T00:51:08.595Z,68.74
2018-07-05T00:53:48.242Z,69.34
2018-07-05T00:56:27.903Z,69.22
2018-07-05T00:59:07.522Z,68.87
2018-07-05T01:01:47.206Z,69.27
2018-07-05T01:04:26.745Z,69.56
2018-07-05T01:07:06.399Z,69.49
2018-07-05T01:09:46.062Z,69.96
2018-07-05T01:12:25.891Z,70.07
2018-07-05T01:15:05.504Z,70.05
2018-07-05T01:17:45.187Z,69.96
2018-07-05T01:20:25.041Z,70.25
2018-07-05T01:23:04.728Z,70.41
2018-07-05T01:25:44.369Z,71.19
2018-07-05T01:28:24.206Z,71.03
2018-07-05T01:31:03.930Z,70.73
2018-07-05T01:33:43.592Z,70.41
2018-07-05T01:36:23.309Z,70.42
2018-07-05T01:39:02.890Z,70.70
2018-07-05T01:41:42.763Z,70.74
2018-07-05T01:44:22.342Z,70.42
2018-07-05T01:47:02.106Z,70.42
2018-07-05T01:49:41.817Z,70.99
2018-07-05T01:52:21.486Z,69.91
2018-07-05T01:55:01.228Z,70.50
2018-07-05T01:57:40.838Z,70.62
2018-07-05T02:00:20.394Z,70.77
2018-07-05T02:03:00.082Z,70.85
2018-07-05T02:05:39.702Z,71.15
2018-07-05T02:08:19.315Z,70.34
2018-07-05T02:10:59.071Z,70.31
2018-07-05T02:13:38.698Z,71.25
2018-07-05T02:16:18.363Z,71.43
2018-07-05T02:18:57.990Z,70.96
2018-07-05T02:21:37.646Z,71.26
2018-07-05T02:24:17.223Z,71.56
2018-07-05T02:26:56.941Z,71.54
2018-07-05T02:29:36.654Z,71.41
2018-07-05T02:32:16.367Z,71.57
2018-07-05T02:34:56.092Z,72.16
2018-07-05T02:37:41.157Z,72.36
2018-07-05T02:40:20.826Z,72.62
2018-07-05T02:43:00.471Z,72.65
2018-07-05T02:45:40.189Z,73.30
2018-07-05T02:48:19.955Z,72.11
2018-07-05T02:50:59.690Z,73.12
2018-07-05T02:53:39.282Z,72.69
2018-07-05T02:56:18.903Z,72.85
2018-07-05T02:58:58.750Z,72.46
2018-07-05T03:01:38.430Z,72.67
2018-07-05T03:04:18.006Z,72.03
2018-07-05T03:06:57.641Z,72.46
2018-07-05T03:09:37.334Z,72.60
2018-07-05T03:12:17.035Z,72.40
2018-07-05T03:14:56.695Z,72.08
2018-07-05T03:17:36.408Z,72.01
2018-07-05T03:20:16.204Z,72.03
2018-07-05T03:22:55.934Z,72.13
2018-07-05T03:25:35.690Z,72.61
2018-07-05T03:28:15.427Z,72.25
2018-07-05T03:30:55.080Z,72.15
2018-07-05T03:33:34.762Z,71.79
2018-07-05T03:36:14.377Z,71.64
2018-07-05T03:38:53.994Z,72.28
2018-07-05T03:41:33.719Z,72.73
2018-07-05T03:44:13.380Z,72.76
2018-07-05T03:46:52.994Z,72.02
2018-07-05T03:49:32.644Z,72.06
2018-07-05T03:52:12.723Z,72.63
2018-07-05T03:54:52.534Z,72.62
2018-07-05T03:57:32.150Z,73.07
2018-07-05T04:00:11.758Z,73.27
2018-07-05T04:02:51.374Z,72.89
2018-07-05T04:05:31.142Z,72.60
2018-07-05T04:08:10.932Z,72.33
2018-07-05T04:10:50.598Z,71.69
2018-07-05T04:13:30.375Z,70.31
2018-07-05T04:16:10.001Z,69.43
2018-07-05T04:18:49.646Z,68.17
2018-07-05T04:21:29.290Z,67.10
2018-07-05T04:24:08.899Z,66.66
2018-07-05T04:26:48.678Z,66.56
2018-07-05T04:29:28.298Z,65.69
2018-07-05T04:32:08.066Z,64.40
2018-07-05T04:34:47.731Z,63.99
2018-07-05T04:37:27.453Z,63.71
2018-07-05T04:40:07.246Z,63.45
2018-07-05T04:42:46.959Z,63.59
2018-07-05T04:45:26.598Z,62.75
2018-07-05T04:48:06.221Z,62.54
2018-07-05T04:50:45.861Z,62.20
2018-07-05T04:53:25.642Z,61.91
2018-07-05T04:56:05.470Z,62.46
2018-07-05T04:58:45.238Z,62.22
2018-07-05T05:01:24.915Z,63.11
2018-07-05T05:04:04.646Z,63.29
2018-07-05T05:06:44.367Z,63.02
2018-07-05T05:09:23.978Z,63.81
2018-07-05T05:12:03.575Z,63.22
2018-07-05T05:14:43.290Z,64.15
2018-07-05T05:17:22.934Z,63.55
2018-07-05T05:20:02.502Z,62.70
2018-07-05T05:22:42.118Z,62.07
2018-07-05T05:25:21.811Z,62.76
2018-07-05T05:28:01.487Z,62.44
2018-07-05T05:30:41.122Z,61.89
2018-07-05T05:33:20.888Z,62.27
2018-07-05T05:36:00.508Z,62.94
2018-07-05T05:38:40.202Z,63.55
2018-07-05T05:41:19.985Z,63.15
2018-07-05T05:43:59.806Z,63.60
2018-07-05T05:46:39.423Z,63.71
2018-07-05T05:49:19.174Z,64.79
2018-07-05T05:51:58.890Z,63.77
2018-07-05T05:54:38.579Z,64.65
2018-07-05T05:57:18.265Z,64.14
2018-07-05T05:59:58.087Z,64.74
2018-07-05T06:02:37.898Z,63.90
2018-07-05T06:05:17.647Z,62.82
2018-07-05T06:07:57.285Z,63.01
2018-07-05T06:10:36.950Z,63.41
2018-07-05T06:13:16.470Z,63.68
2018-07-05T06:15:56.158Z,62.32
2018-07-05T06:18:35.863Z,62.47
2018-07-05T06:21:15.786Z,62.13
2018-07-05T06:23:55.670Z,62.01
2018-07-05T06:26:35.395Z,61.91
2018-07-05T06:29:15.299Z,62.16
2018-07-05T06:31:55.039Z,62.05
2018-07-05T06:34:34.734Z,61.90
2018-07-05T06:37:14.426Z,61.22
2018-07-05T06:39:54.070Z,60.80
2018-07-05T06:42:33.675Z,60.18
2018-07-05T06:45:13.403Z,60.70
2018-07-05T06:47:53.011Z,59.90
2018-07-05T06:50:32.706Z,60.26
2018-07-05T06:53:12.336Z,59.47
2018-07-05T06:55:51.886Z,59.56
2018-07-05T06:58:31.625Z,58.78
2018-07-05T07:01:11.327Z,59.30
2018-07-05T07:03:51.343Z,58.33
2018-07-05T07:06:31.210Z,57.74
2018-07-05T07:09:10.803Z,57.24
2018-07-05T07:11:50.365Z,58.02
2018-07-05T07:14:29.986Z,57.42
2018-07-05T07:17:09.610Z,57.42
2018-07-05T07:19:49.176Z,57.31
2018-07-05T07:22:28.838Z,56.70
2018-07-05T07:25:08.459Z,57.76
2018-07-05T07:27:48.098Z,57.46
2018-07-05T07:30:27.770Z,55.99
2018-07-05T07:33:07.416Z,55.34
2018-07-05T07:35:47.203Z,56.09
2018-07-05T07:38:27.066Z,55.89
2018-07-05T07:41:06.891Z,55.31
2018-07-05T07:43:34.229Z,54.55
2018-07-05T07:46:01.555Z,55.05
2018-07-05T07:48:28.907Z,54.41
2018-07-05T07:50:56.262Z,53.57
2018-07-05T07:53:23.609Z,53.05
2018-07-05T07:55:50.925Z,53.38
2018-07-05T07:58:18.339Z,51.92
2018-07-05T08:00:45.626Z,51.57
2018-07-05T08:03:12.966Z,51.79
2018-07-05T08:05:40.278Z,51.07
2018-07-05T08:08:07.690Z,51.86
2018-07-05T08:10:34.962Z,50.87
2018-07-05T08:13:02.302Z,50.25
2018-07-05T08:15:29.712Z,51.12
2018-07-05T08:17:57.045Z,50.39
2018-07-05T08:20:24.416Z,50.63
2018-07-05T08:22:51.725Z,49.55
2018-07-05T08:25:19.429Z,48.73
2018-07-05T08:27:47.000Z,49.37
2018-07-05T08:30:14.342Z,49.47
2018-07-05T08:32:41.695Z,48.52
2018-07-05T08:35:09.103Z,47.93
2018-07-05T08:37:36.410Z,47.88
2018-07-05T08:40:03.746Z,47.14
2018-07-05T08:42:31.070Z,46.62
2018-07-05T08:44:58.407Z,46.08
2018-07-05T08:47:26.063Z,45.76
2018-07-05T08:49:53.401Z,45.29
2018-07-05T08:52:20.951Z,46.02
2018-07-05T08:54:48.463Z,44.95
2018-07-05T08:57:15.895Z,44.80
2018-07-05T08:59:43.378Z,44.00
2018-07-05T09:02:10.694Z,43.42
2018-07-05T09:04:38.045Z,41.72
2018-07-05T09:07:05.358Z,42.47
2018-07-05T09:09:32.699Z,41.91
2018-07-05T09:12:00.117Z,42.97
2018-07-05T09:14:27.382Z,42.78
2018-07-05T09:16:54.703Z,40.64
2018-07-05T09:19:22.043Z,39.59
2018-07-05T09:21:49.362Z,40.33
2018-07-05T09:24:16.722Z,40.12
2018-07-05T09:26:44.162Z,39.49
2018-07-05T09:29:11.494Z,39.21
2018-07-05T09:31:38.810Z,39.21
2018-07-05T09:34:06.151Z,39.17
2018-07-05T09:36:33.467Z,38.65
2018-07-05T09:39:00.814Z,38.81
2018-07-05T09:41:28.130Z,38.65
2018-07-05T09:43:55.446Z,38.97
2018-07-05T09:46:22.784Z,38.55
2018-07-05T09:48:50.108Z,38.36
2018-07-05T09:51:17.450Z,37.24
2018-07-05T09:53:44.771Z,38.08
2018-07-05T09:56:12.107Z,37.58
2018-07-05T09:58:39.417Z,36.96
2018-07-05T10:01:09.402Z,36.70
2018-07-05T10:03:36.778Z,36.52
2018-07-05T10:06:04.086Z,36.30
2018-07-05T10:08:31.410Z,36.64
2018-07-05T10:10:58.742Z,36.00
2018-07-05T10:13:26.205Z,36.10
2018-07-05T10:15:53.430Z,36.16
2018-07-05T10:18:20.751Z,36.46
2018-07-05T10:20:48.091Z,36.73
2018-07-05T10:23:15.414Z,36.79
2018-07-05T10:25:42.767Z,37.77
2018-07-05T10:28:10.094Z,37.20
2018-07-05T10:30:49.894Z,36.96
2018-07-05T10:33:29.514Z,36.91
2018-07-05T10:35:56.854Z,35.94
2018-07-05T10:38:24.174Z,36.21
2018-07-05T10:41:03.798Z,36.25
2018-07-05T10:43:43.426Z,36.04
2018-07-05T10:46:23.092Z,37.03
2018-07-05T10:49:02.842Z,36.73
2018-07-05T10:51:42.511Z,36.11
2018-07-05T10:54:22.152Z,35.80
2018-07-05T10:57:01.891Z,36.68
2018-07-05T10:59:41.562Z,35.99
2018-07-05T11:02:21.250Z,36.71
2018-07-05T11:05:00.914Z,36.62
2018-07-05T11:07:40.693Z,36.24
2018-07-05T11:10:20.326Z,36.93
2018-07-05T11:13:00.025Z,36.52
2018-07-05T11:15:39.789Z,35.88
2018-07-05T11:18:19.547Z,36.56
2018-07-05T11:20:59.558Z,36.29
2018-07-05T11:23:39.238Z,36.63
2018-07-05T11:26:18.863Z,36.06
2018-07-05T11:28:58.450Z,36.43
2018-07-05T11:31:38.107Z,36.87
2018-07-05T11:34:18.027Z,36.03
2018-07-05T11:36:57.806Z,35.89
2018-07-05T11:39:37.398Z,35.78
2018-07-05T11:42:17.090Z,35.30
2018-07-05T11:44:56.569Z,35.36
2018-07-05T11:47:36.244Z,35.99
2018-07-05T11:50:15.885Z,35.00
2018-07-05T11:52:55.558Z,35.74
2018-07-05T11:55:35.228Z,35.11
2018-07-05T11:58:14.891Z,35.41
2018-07-05T12:00:54.633Z,35.37
2018-07-05T12:03:34.299Z,35.05
2018-07-05T12:06:13.914Z,35.28
2018-07-05T12:08:53.608Z,35.81
2018-07-05T12:11:33.255Z,34.87
2018-07-05T12:14:12.918Z,36.12
2018-07-05T12:16:52.562Z,34.27
2018-07-05T12:19:32.243Z,34.82
2018-07-05T12:22:12.003Z,34.33
2018-07-05T12:24:51.757Z,34.72
2018-07-05T12:27:31.411Z,34.83
2018-07-05T12:30:11.095Z,34.28
2018-07-05T12:32:50.754Z,34.67
2018-07-05T12:35:30.416Z,34.55
2018-07-05T12:38:10.127Z,35.04
2018-07-05T12:40:49.795Z,33.33
2018-07-05T12:43:29.502Z,33.27
2018-07-05T12:46:09.130Z,34.31
2018-07-05T12:48:48.838Z,34.54
2018-07-05T12:51:28.515Z,34.70
2018-07-05T12:54:08.394Z,35.20
2018-07-05T12:56:48.300Z,35.52
2018-07-05T12:59:29.857Z,36.23
2018-07-05T13:02:09.605Z,35.53
2018-07-05T13:04:49.298Z,35.53
2018-07-05T13:07:29.147Z,35.13
2018-07-05T13:10:08.802Z,35.90
2018-07-05T13:12:48.437Z,35.64
2018-07-05T13:15:27.995Z,35.71
2018-07-05T13:18:07.650Z,36.60
2018-07-05T13:20:47.482Z,35.89
2018-07-05T13:23:27.200Z,36.82
2018-07-05T13:26:06.838Z,36.45
2018-07-05T13:28:46.479Z,36.63
2018-07-05T13:31:26.155Z,38.00
2018-07-05T13:34:05.807Z,37.33
2018-07-05T13:36:45.505Z,37.50
2018-07-05T13:39:25.126Z,37.24
2018-07-05T13:42:04.794Z,37.71
2018-07-05T13:44:44.518Z,37.89
2018-07-05T13:47:24.275Z,37.56
2018-07-05T13:50:04.023Z,37.27
2018-07-05T13:52:43.682Z,37.18
2018-07-05T13:55:23.402Z,37.53
2018-07-05T13:58:03.189Z,38.33
2018-07-05T14:00:43.207Z,37.56
2018-07-05T14:03:22.749Z,37.82
2018-07-05T14:06:02.503Z,38.04
2018-07-05T14:08:42.067Z,37.71
2018-07-05T14:11:21.684Z,38.21
2018-07-05T14:14:01.376Z,38.32
2018-07-05T14:16:41.047Z,38.32
2018-07-05T14:19:20.811Z,39.01
2018-07-05T14:22:00.562Z,38.25
2018-07-05T14:24:40.235Z,39.31
2018-07-05T14:27:19.990Z,39.14
2018-07-05T14:29:59.606Z,39.42
2018-07-05T14:32:39.326Z,38.66
2018-07-05T14:35:19.258Z,38.78
2018-07-05T14:37:58.830Z,39.54
2018-07-05T14:40:38.498Z,39.54
2018-07-05T14:43:18.174Z,39.06
2018-07-05T14:45:57.834Z,39.61
2018-07-05T14:48:37.375Z,39.16
2018-07-05T14:51:17.072Z,39.80
2018-07-05T14:53:56.689Z,39.63
2018-07-05T14:56:36.356Z,38.83
2018-07-05T14:59:15.949Z,40.63
2018-07-05T15:01:55.639Z,39.99
2018-07-05T15:04:35.389Z,40.75
2018-07-05T15:07:15.118Z,39.38
2018-07-05T15:09:54.835Z,39.39
2018-07-05T15:12:34.631Z,39.62
2018-07-05T15:15:15.174Z,40.58
2018-07-05T15:17:56.796Z,39.72
2018-07-05T15:20:36.612Z,39.94
2018-07-05T15:23:16.245Z,40.76
2018-07-05T15:25:55.889Z,39.91
2018-07-05T15:28:35.558Z,40.43
2018-07-05T15:31:15.231Z,40.02
2018-07-05T15:33:54.894Z,39.68
2018-07-05T15:36:34.563Z,39.62
2018-07-05T15:39:14.330Z,40.17
2018-07-05T15:41:54.075Z,39.85
2018-07-05T15:44:33.817Z,40.49
2018-07-05T15:47:13.529Z,40.46
2018-07-05T15:49:53.122Z,39.89
2018-07-05T15:52:32.713Z,40.54
2018-07-05T15:55:12.374Z,40.15
2018-07-05T15:57:52.001Z,41.51
2018-07-05T16:00:31.658Z,40.51
2018-07-05T16:03:11.407Z,40.94
2018-07-05T16:05:51.274Z,40.64
2018-07-05T16:08:31.323Z,41.69
2018-07-05T16:11:11.215Z,41.11
2018-07-05T16:13:51.042Z,41.66
2018-07-05T16:16:30.870Z,41.42
2018-07-05T16:19:10.506Z,41.24
2018-07-05T16:21:50.255Z,40.54
2018-07-05T16:24:30.000Z,41.61
2018-07-05T16:27:09.935Z,41.63
2018-07-05T16:29:49.738Z,41.60
2018-07-05T16:32:29.347Z,41.72
2018-07-05T16:35:09.167Z,41.82
2018-07-05T16:37:48.860Z,40.83
2018-07-05T16:40:28.456Z,40.64
2018-07-05T16:43:08.138Z,40.39
2018-07-05T16:45:47.771Z,39.37
2018-07-05T16:48:27.398Z,39.73
2018-07-05T16:51:07.094Z,39.45
2018-07-05T16:53:46.718Z,39.60
2018-07-05T16:56:26.347Z,39.01
2018-07-05T16:59:06.175Z,38.88
2018-07-05T17:01:45.820Z,37.72
2018-07-05T17:04:25.439Z,38.11
2018-07-05T17:07:05.027Z,37.75
2018-07-05T17:09:44.620Z,36.81
2018-07-05T17:12:24.210Z,37.49
2018-07-05T17:15:03.816Z,36.66
2018-07-05T17:17:43.472Z,37.51
2018-07-05T17:20:23.267Z,37.49
2018-07-05T17:23:02.962Z,37.67
2018-07-05T17:25:42.695Z,37.13
2018-07-05T17:28:22.371Z,37.85
2018-07-05T17:31:01.986Z,37.78
2018-07-05T17:33:41.646Z,38.13
2018-07-05T17:36:21.267Z,37.63
2018-07-05T17:39:01.059Z,37.50
2018-07-05T17:41:40.698Z,38.44
2018-07-05T17:44:20.323Z,37.85
2018-07-05T17:46:59.938Z,37.79
2018-07-05T17:49:39.603Z,38.22
2018-07-05T17:52:19.242Z,37.94
2018-07-05T17:54:59.015Z,38.93
2018-07-05T17:57:38.641Z,39.46
2018-07-05T18:00:18.410Z,39.51
2018-07-05T18:02:58.148Z,40.32
2018-07-05T18:05:37.775Z,40.87
2018-07-05T18:08:17.503Z,41.68
2018-07-05T18:10:57.267Z,41.84
2018-07-05T18:13:36.982Z,43.00
2018-07-05T18:16:16.750Z,43.47
2018-07-05T18:18:56.470Z,45.25
2018-07-05T18:21:36.059Z,45.40
2018-07-05T18:24:15.655Z,46.66
2018-07-05T18:26:55.353Z,47.33
2018-07-05T18:29:34.967Z,47.02
2018-07-05T18:32:14.650Z,47.86
2018-07-05T18:34:54.306Z,49.17
2018-07-05T18:37:33.998Z,49.59
2018-07-05T18:40:13.736Z,49.61
2018-07-05T18:42:53.520Z,50.08
2018-07-05T18:45:33.267Z,50.12
2018-07-05T18:48:12.934Z,50.43
2018-07-05T18:50:52.502Z,50.83
2018-07-05T18:53:32.073Z,51.14
2018-07-05T18:56:11.793Z,51.74
2018-07-05T18:58:51.573Z,51.46
2018-07-05T19:01:31.324Z,51.90
2018-07-05T19:04:11.016Z,52.75
2018-07-05T19:06:50.659Z,52.38
2018-07-05T19:09:30.327Z,53.03
2018-07-05T19:12:10.067Z,52.53
2018-07-05T19:14:49.730Z,53.78
2018-07-05T19:17:29.411Z,54.09
2018-07-05T19:20:09.014Z,53.75
2018-07-05T19:22:48.687Z,53.71
2018-07-05T19:25:28.302Z,54.85
2018-07-05T19:28:07.944Z,54.93
2018-07-05T19:30:47.558Z,54.91
2018-07-05T19:33:27.282Z,54.67
2018-07-05T19:36:07.717Z,55.19
2018-07-05T19:38:47.682Z,55.65
2018-07-05T19:41:27.401Z,56.02
2018-07-05T19:44:07.042Z,56.24
2018-07-05T19:46:46.690Z,55.97
2018-07-05T19:49:26.418Z,56.96
2018-07-05T19:52:06.047Z,57.62
2018-07-05T19:54:45.684Z,56.76
2018-07-05T19:57:25.538Z,57.60
2018-07-05T20:00:05.202Z,57.66
2018-07-05T20:02:45.026Z,57.70
2018-07-05T20:05:24.783Z,57.00
2018-07-05T20:08:04.428Z,57.24
2018-07-05T20:10:44.163Z,57.63
2018-07-05T20:13:23.873Z,57.79
2018-07-05T20:16:03.607Z,58.16
2018-07-05T20:18:43.302Z,57.93
2018-07-05T20:21:23.091Z,58.52
2018-07-05T20:24:02.774Z,58.36
2018-07-05T20:26:42.395Z,58.34
2018-07-05T20:29:21.967Z,59.27
2018-07-05T20:32:01.580Z,59.02
2018-07-05T20:34:41.246Z,59.84
2018-07-05T20:37:20.910Z,59.73
2018-07-05T20:40:01.039Z,60.44
2018-07-05T20:42:40.838Z,60.42
2018-07-05T20:45:20.715Z,60.68
2018-07-05T20:48:00.529Z,61.49
2018-07-05T20:50:40.146Z,61.81
2018-07-05T20:53:19.695Z,62.03
2018-07-05T20:55:59.278Z,61.29
2018-07-05T20:58:40.526Z,62.36
2018-07-05T21:01:21.094Z,62.63
2018-07-05T21:04:00.859Z,62.07
2018-07-05T21:06:40.627Z,62.38
2018-07-05T21:09:20.271Z,63.01
2018-07-05T21:12:00.051Z,63.58
2018-07-05T21:14:39.702Z,63.21
2018-07-05T21:17:19.347Z,64.18
2018-07-05T21:19:59.008Z,64.41
2018-07-05T21:22:38.635Z,64.49
2018-07-05T21:25:18.198Z,64.90
2018-07-05T21:27:57.866Z,64.64
2018-07-05T21:30:37.605Z,64.46
2018-07-05T21:33:17.406Z,64.84
2018-07-05T21:35:57.017Z,65.31
2018-07-05T21:38:36.711Z,65.49
2018-07-05T21:41:16.447Z,66.19
2018-07-05T21:43:56.043Z,66.12
2018-07-05T21:46:35.707Z,65.87
2018-07-05T21:49:15.246Z,66.18
2018-07-05T21:51:54.875Z,66.52
2018-07-05T21:54:34.559Z,66.00
2018-07-05T21:57:14.151Z,66.37
2018-07-05T21:59:53.838Z,66.85
2018-07-05T22:02:33.491Z,66.38
2018-07-05T22:05:13.674Z,67.03
2018-07-05T22:07:54.839Z,66.92
2018-07-05T22:10:34.686Z,67.11
2018-07-05T22:13:14.287Z,67.20
2018-07-05T22:15:53.943Z,66.63
2018-07-05T22:18:39.074Z,66.10
2018-07-05T22:21:19.315Z,66.20
2018-07-05T22:24:04.410Z,66.71
2018-07-05T22:26:45.359Z,66.91
2018-07-05T22:29:30.534Z,66.44
2018-07-05T22:32:10.374Z,66.09
2018-07-05T22:34:50.019Z,65.71
2018-07-05T22:37:29.629Z,66.19
2018-07-05T22:40:09.352Z,65.40
2018-07-05T22:42:48.999Z,65.07
2018-07-05T22:45:28.634Z,65.66
2018-07-05T22:48:08.275Z,65.46
2018-07-05T22:50:47.965Z,64.76
2018-07-05T22:53:27.634Z,64.68
2018-07-05T22:56:07.255Z,65.13
2018-07-05T22:58:46.898Z,64.54
2018-07-05T23:01:26.538Z,64.89
2018-07-05T23:04:06.261Z,64.77
2018-07-05T23:06:45.874Z,64.01
2018-07-05T23:09:25.550Z,64.45
2018-07-05T23:12:05.183Z,64.79
2018-07-05T23:14:44.854Z,64.47
2018-07-05T23:17:24.491Z,63.93
2018-07-05T23:20:04.134Z,63.74
2018-07-05T23:22:43.803Z,64.67
2018-07-05T23:25:23.447Z,64.18
2018-07-05T23:28:03.066Z,63.55
2018-07-05T23:30:42.660Z,64.21
2018-07-05T23:33:22.327Z,63.58
2018-07-05T23:36:01.939Z,63.64
2018-07-05T23:38:41.530Z,64.35
2018-07-05T23:41:21.290Z,64.64
2018-07-05T23:44:00.922Z,63.66
2018-07-05T23:46:40.582Z,64.29
2018-07-05T23:49:20.222Z,64.31
2018-07-05T23:51:59.881Z,63.74
2018-07-05T23:54:39.578Z,63.42
2018-07-05T23:57:19.241Z,64.31
2018-07-05T23:59:58.861Z,64.00
